Quincy, Florida
Current Conditions -  °F | °C
As of 5:15 PM on Wednesday 28 Jan 2015 (Local Time) from K2J9 Reporting Station
Clear Clear  
Wind Chill: 57°   Ceiling: Unl
Heat Index: 57°   Visibility: 10mi
Dew Point: 32°   Wind: 5mph
Humidity: 38%   Direction: 10°N
Pressure: 30.27"   Gusts: NA
Location:  30.59°N, 84.58°W
Report Text: K2J9 282215Z AUTO 01004KT 10SM CLR 14/00 A3027 RMK AO1
Loading
Personal Weather Stations






























Interactive Weather Map New forecast layout! Learn more

10-Day Weather Forecast

Advertisements
Track Severe Weather on mobile